sensor_id;sensor_type;location;lat;lon;timestamp;P1;durP1;ratioP1;P2;durP2;ratioP2
24261;SDS011;12385;51.412;5.540;2022-07-09T00:00:25;15.05;;;6.32;;
24261;SDS011;12385;51.412;5.540;2022-07-09T00:02:51;12.20;;;5.40;;
24261;SDS011;12385;51.412;5.540;2022-07-09T00:05:16;10.93;;;5.30;;
24261;SDS011;12385;51.412;5.540;2022-07-09T00:07:42;9.75;;;4.80;;
24261;SDS011;12385;51.412;5.540;2022-07-09T00:10:08;11.45;;;4.72;;
24261;SDS011;12385;51.412;5.540;2022-07-09T00:12:33;11.27;;;4.68;;
24261;SDS011;12385;51.412;5.540;2022-07-09T00:14:59;9.63;;;4.78;;
24261;SDS011;12385;51.412;5.540;2022-07-09T00:17:25;14.15;;;4.57;;
24261;SDS011;12385;51.412;5.540;2022-07-09T00:19:51;7.63;;;4.50;;
24261;SDS011;12385;51.412;5.540;2022-07-09T00:22:17;9.63;;;4.32;;
24261;SDS011;12385;51.412;5.540;2022-07-09T00:24:53;9.18;;;4.70;;
24261;SDS011;12385;51.412;5.540;2022-07-09T00:27:19;9.43;;;4.00;;
24261;SDS011;12385;51.412;5.540;2022-07-09T00:29:44;7.90;;;4.00;;
24261;SDS011;12385;51.412;5.540;2022-07-09T00:32:10;7.50;;;4.03;;
24261;SDS011;12385;51.412;5.540;2022-07-09T00:34:35;8.30;;;4.13;;
24261;SDS011;12385;51.412;5.540;2022-07-09T00:37:01;7.88;;;4.00;;
24261;SDS011;12385;51.412;5.540;2022-07-09T00:39:27;7.50;;;4.15;;
24261;SDS011;12385;51.412;5.540;2022-07-09T00:42:05;9.23;;;4.28;;
24261;SDS011;12385;51.412;5.540;2022-07-09T00:44:32;10.18;;;4.43;;
24261;SDS011;12385;51.412;5.540;2022-07-09T00:46:58;7.40;;;4.28;;
24261;SDS011;12385;51.412;5.540;2022-07-09T00:49:24;9.63;;;4.88;;
24261;SDS011;12385;51.412;5.540;2022-07-09T00:51:51;12.30;;;4.75;;
24261;SDS011;12385;51.412;5.540;2022-07-09T00:54:17;9.95;;;5.22;;
24261;SDS011;12385;51.412;5.540;2022-07-09T00:56:43;11.50;;;5.75;;
24261;SDS011;12385;51.412;5.540;2022-07-09T00:59:09;9.10;;;5.00;;
24261;SDS011;12385;51.412;5.540;2022-07-09T01:01:38;8.05;;;4.70;;
24261;SDS011;12385;51.412;5.540;2022-07-09T01:04:06;10.60;;;5.00;;
24261;SDS011;12385;51.412;5.540;2022-07-09T01:06:32;11.48;;;4.72;;
24261;SDS011;12385;51.412;5.540;2022-07-09T01:09:00;11.30;;;5.07;;
24261;SDS011;12385;51.412;5.540;2022-07-09T01:11:26;7.57;;;4.72;;
24261;SDS011;12385;51.412;5.540;2022-07-09T01:13:52;11.65;;;5.05;;
24261;SDS011;12385;51.412;5.540;2022-07-09T01:16:18;7.78;;;4.65;;
24261;SDS011;12385;51.412;5.540;2022-07-09T01:18:46;9.20;;;6.18;;
24261;SDS011;12385;51.412;5.540;2022-07-09T01:21:15;6.82;;;4.85;;
24261;SDS011;12385;51.412;5.540;2022-07-09T01:23:41;8.83;;;4.80;;
24261;SDS011;12385;51.412;5.540;2022-07-09T01:26:07;6.50;;;4.20;;
24261;SDS011;12385;51.412;5.540;2022-07-09T01:28:33;9.95;;;5.30;;
24261;SDS011;12385;51.412;5.540;2022-07-09T01:30:58;9.20;;;4.95;;
24261;SDS011;12385;51.412;5.540;2022-07-09T01:33:25;8.70;;;5.07;;
24261;SDS011;12385;51.412;5.540;2022-07-09T01:35:51;7.60;;;4.68;;
24261;SDS011;12385;51.412;5.540;2022-07-09T01:38:16;9.20;;;5.60;;
24261;SDS011;12385;51.412;5.540;2022-07-09T01:40:42;7.70;;;5.85;;
24261;SDS011;12385;51.412;5.540;2022-07-09T01:43:07;7.88;;;4.85;;
24261;SDS011;12385;51.412;5.540;2022-07-09T01:45:33;12.98;;;5.28;;
24261;SDS011;12385;51.412;5.540;2022-07-09T01:47:59;10.77;;;5.68;;
24261;SDS011;12385;51.412;5.540;2022-07-09T01:50:24;8.70;;;5.55;;
24261;SDS011;12385;51.412;5.540;2022-07-09T01:52:50;11.57;;;6.32;;
24261;SDS011;12385;51.412;5.540;2022-07-09T01:55:16;11.73;;;6.82;;
24261;SDS011;12385;51.412;5.540;2022-07-09T01:57:41;10.57;;;6.15;;
24261;SDS011;12385;51.412;5.540;2022-07-09T02:00:07;9.35;;;5.93;;
24261;SDS011;12385;51.412;5.540;2022-07-09T02:02:33;8.23;;;5.95;;
24261;SDS011;12385;51.412;5.540;2022-07-09T02:04:59;8.68;;;5.82;;
24261;SDS011;12385;51.412;5.540;2022-07-09T02:07:24;11.27;;;6.80;;
24261;SDS011;12385;51.412;5.540;2022-07-09T02:09:50;16.13;;;7.40;;
24261;SDS011;12385;51.412;5.540;2022-07-09T02:12:17;12.30;;;6.13;;
24261;SDS011;12385;51.412;5.540;2022-07-09T02:14:43;7.97;;;5.82;;
24261;SDS011;12385;51.412;5.540;2022-07-09T02:17:09;7.03;;;5.85;;
24261;SDS011;12385;51.412;5.540;2022-07-09T02:19:34;7.22;;;6.03;;
24261;SDS011;12385;51.412;5.540;2022-07-09T02:22:00;10.25;;;6.35;;
24261;SDS011;12385;51.412;5.540;2022-07-09T02:24:26;9.98;;;6.15;;
24261;SDS011;12385;51.412;5.540;2022-07-09T02:26:51;11.40;;;5.32;;
24261;SDS011;12385;51.412;5.540;2022-07-09T02:29:17;9.93;;;5.90;;
24261;SDS011;12385;51.412;5.540;2022-07-09T02:31:43;9.32;;;5.70;;
24261;SDS011;12385;51.412;5.540;2022-07-09T02:34:08;9.50;;;5.78;;
24261;SDS011;12385;51.412;5.540;2022-07-09T02:36:34;11.65;;;6.10;;
24261;SDS011;12385;51.412;5.540;2022-07-09T02:39:00;9.30;;;6.93;;
24261;SDS011;12385;51.412;5.540;2022-07-09T02:41:25;9.95;;;6.80;;
24261;SDS011;12385;51.412;5.540;2022-07-09T02:43:51;11.73;;;7.00;;
24261;SDS011;12385;51.412;5.540;2022-07-09T02:46:17;10.32;;;7.65;;
24261;SDS011;12385;51.412;5.540;2022-07-09T02:48:43;11.13;;;7.15;;
24261;SDS011;12385;51.412;5.540;2022-07-09T02:51:08;9.18;;;6.57;;
24261;SDS011;12385;51.412;5.540;2022-07-09T02:53:34;8.65;;;5.50;;
24261;SDS011;12385;51.412;5.540;2022-07-09T02:55:59;13.07;;;5.50;;
24261;SDS011;12385;51.412;5.540;2022-07-09T02:58:25;7.78;;;6.28;;
24261;SDS011;12385;51.412;5.540;2022-07-09T03:00:51;8.90;;;6.60;;
24261;SDS011;12385;51.412;5.540;2022-07-09T03:03:16;9.48;;;6.70;;
24261;SDS011;12385;51.412;5.540;2022-07-09T03:05:42;13.48;;;8.48;;
24261;SDS011;12385;51.412;5.540;2022-07-09T03:08:07;10.95;;;9.02;;
24261;SDS011;12385;51.412;5.540;2022-07-09T03:10:33;10.43;;;8.23;;
24261;SDS011;12385;51.412;5.540;2022-07-09T03:13:00;14.15;;;8.98;;
24261;SDS011;12385;51.412;5.540;2022-07-09T03:15:25;17.63;;;9.90;;
24261;SDS011;12385;51.412;5.540;2022-07-09T03:17:51;13.50;;;9.68;;
24261;SDS011;12385;51.412;5.540;2022-07-09T03:20:17;13.38;;;10.70;;
24261;SDS011;12385;51.412;5.540;2022-07-09T03:22:43;13.82;;;9.98;;
24261;SDS011;12385;51.412;5.540;2022-07-09T03:25:08;15.82;;;9.48;;
24261;SDS011;12385;51.412;5.540;2022-07-09T03:27:34;18.33;;;10.55;;
24261;SDS011;12385;51.412;5.540;2022-07-09T03:30:00;13.43;;;10.68;;
24261;SDS011;12385;51.412;5.540;2022-07-09T03:32:27;13.68;;;10.68;;
24261;SDS011;12385;51.412;5.540;2022-07-09T03:34:53;13.98;;;10.07;;
24261;SDS011;12385;51.412;5.540;2022-07-09T03:37:19;16.88;;;11.32;;
24261;SDS011;12385;51.412;5.540;2022-07-09T03:39:44;13.25;;;10.75;;
24261;SDS011;12385;51.412;5.540;2022-07-09T03:42:10;14.27;;;10.60;;
24261;SDS011;12385;51.412;5.540;2022-07-09T03:44:37;11.43;;;9.10;;
24261;SDS011;12385;51.412;5.540;2022-07-09T03:47:03;16.63;;;10.93;;
24261;SDS011;12385;51.412;5.540;2022-07-09T03:49:28;13.48;;;10.68;;
24261;SDS011;12385;51.412;5.540;2022-07-09T03:51:54;16.63;;;11.23;;
24261;SDS011;12385;51.412;5.540;2022-07-09T03:54:20;14.95;;;11.07;;
24261;SDS011;12385;51.412;5.540;2022-07-09T03:56:45;17.02;;;11.02;;
24261;SDS011;12385;51.412;5.540;2022-07-09T03:59:12;20.00;;;13.00;;
24261;SDS011;12385;51.412;5.540;2022-07-09T04:01:38;14.80;;;11.57;;
24261;SDS011;12385;51.412;5.540;2022-07-09T04:04:04;12.73;;;10.90;;
24261;SDS011;12385;51.412;5.540;2022-07-09T04:06:31;16.67;;;12.60;;
24261;SDS011;12385;51.412;5.540;2022-07-09T04:08:56;16.67;;;12.68;;
24261;SDS011;12385;51.412;5.540;2022-07-09T04:11:22;13.68;;;12.27;;
24261;SDS011;12385;51.412;5.540;2022-07-09T04:13:48;18.30;;;12.80;;
24261;SDS011;12385;51.412;5.540;2022-07-09T04:16:14;24.15;;;15.80;;
24261;SDS011;12385;51.412;5.540;2022-07-09T04:18:39;20.67;;;15.70;;
24261;SDS011;12385;51.412;5.540;2022-07-09T04:21:09;23.95;;;16.88;;
24261;SDS011;12385;51.412;5.540;2022-07-09T04:23:35;22.85;;;17.58;;
24261;SDS011;12385;51.412;5.540;2022-07-09T04:26:01;26.15;;;19.48;;
24261;SDS011;12385;51.412;5.540;2022-07-09T04:28:27;27.27;;;21.58;;
24261;SDS011;12385;51.412;5.540;2022-07-09T04:30:52;24.45;;;19.80;;
24261;SDS011;12385;51.412;5.540;2022-07-09T04:33:18;23.17;;;18.83;;
24261;SDS011;12385;51.412;5.540;2022-07-09T04:35:44;26.75;;;22.13;;
24261;SDS011;12385;51.412;5.540;2022-07-09T04:38:13;28.23;;;22.30;;
24261;SDS011;12385;51.412;5.540;2022-07-09T04:40:39;33.10;;;24.45;;
24261;SDS011;12385;51.412;5.540;2022-07-09T04:43:05;34.97;;;26.95;;
24261;SDS011;12385;51.412;5.540;2022-07-09T04:45:31;40.00;;;29.05;;
24261;SDS011;12385;51.412;5.540;2022-07-09T04:47:57;44.78;;;30.05;;
24261;SDS011;12385;51.412;5.540;2022-07-09T04:50:24;46.30;;;31.40;;
24261;SDS011;12385;51.412;5.540;2022-07-09T04:52:50;44.03;;;30.70;;
24261;SDS011;12385;51.412;5.540;2022-07-09T04:55:15;37.03;;;28.65;;
24261;SDS011;12385;51.412;5.540;2022-07-09T04:57:44;46.28;;;31.63;;
24261;SDS011;12385;51.412;5.540;2022-07-09T05:00:10;42.15;;;33.33;;
24261;SDS011;12385;51.412;5.540;2022-07-09T05:02:37;43.28;;;34.55;;
24261;SDS011;12385;51.412;5.540;2022-07-09T05:05:03;49.65;;;34.55;;
24261;SDS011;12385;51.412;5.540;2022-07-09T05:07:31;51.72;;;36.75;;
24261;SDS011;12385;51.412;5.540;2022-07-09T05:09:58;43.63;;;34.05;;
24261;SDS011;12385;51.412;5.540;2022-07-09T05:12:25;48.70;;;36.22;;
24261;SDS011;12385;51.412;5.540;2022-07-09T05:14:51;47.58;;;35.50;;
24261;SDS011;12385;51.412;5.540;2022-07-09T05:17:16;51.58;;;37.17;;
24261;SDS011;12385;51.412;5.540;2022-07-09T05:19:42;49.65;;;37.17;;
24261;SDS011;12385;51.412;5.540;2022-07-09T05:22:08;52.40;;;37.60;;
24261;SDS011;12385;51.412;5.540;2022-07-09T05:24:33;47.35;;;37.25;;
24261;SDS011;12385;51.412;5.540;2022-07-09T05:26:59;51.00;;;37.05;;
24261;SDS011;12385;51.412;5.540;2022-07-09T05:29:24;55.70;;;40.22;;
24261;SDS011;12385;51.412;5.540;2022-07-09T05:31:51;53.78;;;39.00;;
24261;SDS011;12385;51.412;5.540;2022-07-09T05:34:17;55.65;;;40.90;;
24261;SDS011;12385;51.412;5.540;2022-07-09T05:36:42;51.22;;;38.63;;
24261;SDS011;12385;51.412;5.540;2022-07-09T05:39:09;51.58;;;36.75;;
24261;SDS011;12385;51.412;5.540;2022-07-09T05:41:34;49.10;;;38.35;;
24261;SDS011;12385;51.412;5.540;2022-07-09T05:44:00;56.33;;;38.72;;
24261;SDS011;12385;51.412;5.540;2022-07-09T05:46:28;51.72;;;38.05;;
24261;SDS011;12385;51.412;5.540;2022-07-09T05:48:54;52.30;;;37.78;;
24261;SDS011;12385;51.412;5.540;2022-07-09T05:51:20;49.45;;;38.65;;
24261;SDS011;12385;51.412;5.540;2022-07-09T05:53:46;51.35;;;38.08;;
24261;SDS011;12385;51.412;5.540;2022-07-09T05:56:12;46.53;;;36.65;;
24261;SDS011;12385;51.412;5.540;2022-07-09T05:58:37;49.53;;;38.17;;
24261;SDS011;12385;51.412;5.540;2022-07-09T06:01:03;52.42;;;38.22;;
24261;SDS011;12385;51.412;5.540;2022-07-09T06:03:30;52.47;;;39.05;;
24261;SDS011;12385;51.412;5.540;2022-07-09T06:05:56;53.97;;;39.55;;
24261;SDS011;12385;51.412;5.540;2022-07-09T06:08:22;52.83;;;38.22;;
24261;SDS011;12385;51.412;5.540;2022-07-09T06:10:49;50.42;;;39.10;;
24261;SDS011;12385;51.412;5.540;2022-07-09T06:13:16;50.53;;;37.25;;
24261;SDS011;12385;51.412;5.540;2022-07-09T06:15:41;47.33;;;36.30;;
24261;SDS011;12385;51.412;5.540;2022-07-09T06:18:07;52.00;;;37.30;;
24261;SDS011;12385;51.412;5.540;2022-07-09T06:20:33;48.85;;;36.80;;
24261;SDS011;12385;51.412;5.540;2022-07-09T06:22:59;45.50;;;36.25;;
24261;SDS011;12385;51.412;5.540;2022-07-09T06:25:25;44.40;;;36.53;;
24261;SDS011;12385;51.412;5.540;2022-07-09T06:27:50;44.83;;;34.70;;
24261;SDS011;12385;51.412;5.540;2022-07-09T06:30:16;44.97;;;34.53;;
24261;SDS011;12385;51.412;5.540;2022-07-09T06:32:42;47.53;;;34.97;;
24261;SDS011;12385;51.412;5.540;2022-07-09T06:35:09;46.00;;;34.97;;
24261;SDS011;12385;51.412;5.540;2022-07-09T06:37:35;44.80;;;34.50;;
24261;SDS011;12385;51.412;5.540;2022-07-09T06:40:00;41.65;;;33.38;;
24261;SDS011;12385;51.412;5.540;2022-07-09T06:42:26;48.75;;;33.22;;
24261;SDS011;12385;51.412;5.540;2022-07-09T06:44:52;39.92;;;31.13;;
24261;SDS011;12385;51.412;5.540;2022-07-09T06:47:17;40.72;;;30.30;;
24261;SDS011;12385;51.412;5.540;2022-07-09T06:49:43;42.17;;;31.05;;
24261;SDS011;12385;51.412;5.540;2022-07-09T06:52:08;41.47;;;29.35;;
24261;SDS011;12385;51.412;5.540;2022-07-09T06:54:35;36.22;;;28.88;;
24261;SDS011;12385;51.412;5.540;2022-07-09T06:57:01;36.83;;;30.02;;
24261;SDS011;12385;51.412;5.540;2022-07-09T06:59:28;37.10;;;29.15;;
24261;SDS011;12385;51.412;5.540;2022-07-09T07:01:53;39.72;;;28.65;;
24261;SDS011;12385;51.412;5.540;2022-07-09T07:04:19;35.15;;;28.17;;
24261;SDS011;12385;51.412;5.540;2022-07-09T07:06:45;33.85;;;26.23;;
24261;SDS011;12385;51.412;5.540;2022-07-09T07:09:13;34.15;;;26.45;;
24261;SDS011;12385;51.412;5.540;2022-07-09T07:11:40;32.28;;;25.67;;
24261;SDS011;12385;51.412;5.540;2022-07-09T07:14:06;26.98;;;23.42;;
24261;SDS011;12385;51.412;5.540;2022-07-09T07:16:31;26.58;;;21.65;;
24261;SDS011;12385;51.412;5.540;2022-07-09T07:18:58;25.52;;;19.20;;
24261;SDS011;12385;51.412;5.540;2022-07-09T07:21:24;23.92;;;17.67;;
24261;SDS011;12385;51.412;5.540;2022-07-09T07:23:49;22.48;;;17.70;;
24261;SDS011;12385;51.412;5.540;2022-07-09T07:26:15;22.25;;;17.13;;
24261;SDS011;12385;51.412;5.540;2022-07-09T07:28:40;23.95;;;16.85;;
24261;SDS011;12385;51.412;5.540;2022-07-09T07:31:06;24.23;;;16.20;;
24261;SDS011;12385;51.412;5.540;2022-07-09T07:33:32;23.92;;;16.27;;
24261;SDS011;12385;51.412;5.540;2022-07-09T07:35:57;20.45;;;16.17;;
24261;SDS011;12385;51.412;5.540;2022-07-09T07:38:23;26.58;;;16.60;;
24261;SDS011;12385;51.412;5.540;2022-07-09T07:40:52;20.33;;;16.20;;
24261;SDS011;12385;51.412;5.540;2022-07-09T07:43:18;21.23;;;16.33;;
24261;SDS011;12385;51.412;5.540;2022-07-09T07:45:44;24.98;;;16.08;;
24261;SDS011;12385;51.412;5.540;2022-07-09T07:48:09;19.35;;;15.65;;
24261;SDS011;12385;51.412;5.540;2022-07-09T07:50:36;22.88;;;17.40;;
24261;SDS011;12385;51.412;5.540;2022-07-09T07:53:04;20.20;;;16.10;;
24261;SDS011;12385;51.412;5.540;2022-07-09T07:55:33;18.58;;;15.05;;
24261;SDS011;12385;51.412;5.540;2022-07-09T07:57:59;20.23;;;15.40;;
24261;SDS011;12385;51.412;5.540;2022-07-09T08:00:24;17.45;;;14.48;;
24261;SDS011;12385;51.412;5.540;2022-07-09T08:02:50;23.50;;;15.02;;
24261;SDS011;12385;51.412;5.540;2022-07-09T08:05:16;17.55;;;14.18;;
24261;SDS011;12385;51.412;5.540;2022-07-09T08:07:42;14.52;;;10.88;;
24261;SDS011;12385;51.412;5.540;2022-07-09T08:10:08;11.93;;;8.05;;
24261;SDS011;12385;51.412;5.540;2022-07-09T08:12:34;11.07;;;8.00;;
24261;SDS011;12385;51.412;5.540;2022-07-09T08:15:00;11.57;;;7.78;;
24261;SDS011;12385;51.412;5.540;2022-07-09T08:17:25;14.30;;;9.43;;
24261;SDS011;12385;51.412;5.540;2022-07-09T08:19:52;12.45;;;8.90;;
24261;SDS011;12385;51.412;5.540;2022-07-09T08:22:18;13.43;;;9.80;;
24261;SDS011;12385;51.412;5.540;2022-07-09T08:24:43;16.45;;;9.63;;
24261;SDS011;12385;51.412;5.540;2022-07-09T08:27:09;15.20;;;9.70;;
24261;SDS011;12385;51.412;5.540;2022-07-09T08:29:35;14.98;;;10.35;;
24261;SDS011;12385;51.412;5.540;2022-07-09T08:32:01;15.05;;;10.25;;
24261;SDS011;12385;51.412;5.540;2022-07-09T08:34:27;12.88;;;8.98;;
24261;SDS011;12385;51.412;5.540;2022-07-09T08:36:54;11.68;;;9.07;;
24261;SDS011;12385;51.412;5.540;2022-07-09T08:39:19;13.00;;;9.07;;
24261;SDS011;12385;51.412;5.540;2022-07-09T08:41:45;12.38;;;9.00;;
24261;SDS011;12385;51.412;5.540;2022-07-09T08:44:11;12.93;;;8.98;;
24261;SDS011;12385;51.412;5.540;2022-07-09T08:46:38;14.18;;;9.93;;
24261;SDS011;12385;51.412;5.540;2022-07-09T08:49:04;14.73;;;10.18;;
24261;SDS011;12385;51.412;5.540;2022-07-09T08:51:31;17.25;;;10.13;;
24261;SDS011;12385;51.412;5.540;2022-07-09T08:53:58;17.30;;;9.52;;
24261;SDS011;12385;51.412;5.540;2022-07-09T08:56:25;15.60;;;10.13;;
24261;SDS011;12385;51.412;5.540;2022-07-09T08:58:51;13.88;;;8.55;;
24261;SDS011;12385;51.412;5.540;2022-07-09T09:01:16;12.98;;;7.60;;
24261;SDS011;12385;51.412;5.540;2022-07-09T09:03:42;13.88;;;6.80;;
24261;SDS011;12385;51.412;5.540;2022-07-09T09:06:10;10.50;;;6.95;;
24261;SDS011;12385;51.412;5.540;2022-07-09T09:08:40;10.82;;;7.47;;
24261;SDS011;12385;51.412;5.540;2022-07-09T09:11:22;13.60;;;8.50;;
24261;SDS011;12385;51.412;5.540;2022-07-09T09:13:49;11.95;;;7.60;;
24261;SDS011;12385;51.412;5.540;2022-07-09T09:16:16;14.25;;;8.52;;
24261;SDS011;12385;51.412;5.540;2022-07-09T09:18:43;14.93;;;10.93;;
24261;SDS011;12385;51.412;5.540;2022-07-09T09:21:10;14.95;;;9.88;;
24261;SDS011;12385;51.412;5.540;2022-07-09T09:23:46;17.38;;;10.05;;
24261;SDS011;12385;51.412;5.540;2022-07-09T09:26:33;12.10;;;8.95;;
24261;SDS011;12385;51.412;5.540;2022-07-09T09:29:01;16.70;;;8.70;;
24261;SDS011;12385;51.412;5.540;2022-07-09T09:31:29;12.70;;;8.68;;
24261;SDS011;12385;51.412;5.540;2022-07-09T09:36:38;14.15;;;9.15;;
24261;SDS011;12385;51.412;5.540;2022-07-09T09:42:01;17.35;;;10.32;;
24261;SDS011;12385;51.412;5.540;2022-07-09T09:44:33;16.42;;;10.30;;
24261;SDS011;12385;51.412;5.540;2022-07-09T09:47:06;16.83;;;10.15;;
24261;SDS011;12385;51.412;5.540;2022-07-09T09:49:32;18.80;;;11.90;;
24261;SDS011;12385;51.412;5.540;2022-07-09T09:52:05;19.05;;;13.07;;
24261;SDS011;12385;51.412;5.540;2022-07-09T09:54:38;22.98;;;12.93;;
24261;SDS011;12385;51.412;5.540;2022-07-09T09:57:10;19.58;;;11.93;;
24261;SDS011;12385;51.412;5.540;2022-07-09T09:59:41;21.25;;;15.15;;
24261;SDS011;12385;51.412;5.540;2022-07-09T10:02:10;21.88;;;13.95;;
24261;SDS011;12385;51.412;5.540;2022-07-09T10:04:37;18.92;;;14.77;;
24261;SDS011;12385;51.412;5.540;2022-07-09T10:07:03;17.90;;;14.40;;
24261;SDS011;12385;51.412;5.540;2022-07-09T10:09:30;21.20;;;14.45;;
24261;SDS011;12385;51.412;5.540;2022-07-09T10:11:55;20.65;;;17.70;;
24261;SDS011;12385;51.412;5.540;2022-07-09T10:16:50;24.58;;;17.10;;
24261;SDS011;12385;51.412;5.540;2022-07-09T10:19:29;22.17;;;16.33;;
24261;SDS011;12385;51.412;5.540;2022-07-09T10:21:58;19.02;;;15.13;;
24261;SDS011;12385;51.412;5.540;2022-07-09T10:24:28;22.38;;;17.27;;
24261;SDS011;12385;51.412;5.540;2022-07-09T10:29:36;19.98;;;15.75;;
24261;SDS011;12385;51.412;5.540;2022-07-09T10:32:21;22.70;;;17.70;;
24261;SDS011;12385;51.412;5.540;2022-07-09T10:35:03;21.70;;;15.65;;
24261;SDS011;12385;51.412;5.540;2022-07-09T10:40:18;20.15;;;14.05;;
24261;SDS011;12385;51.412;5.540;2022-07-09T10:42:58;16.23;;;13.80;;
24261;SDS011;12385;51.412;5.540;2022-07-09T10:45:29;18.13;;;11.65;;
24261;SDS011;12385;51.412;5.540;2022-07-09T10:48:01;18.42;;;10.57;;
24261;SDS011;12385;51.412;5.540;2022-07-09T10:50:30;13.20;;;10.02;;
24261;SDS011;12385;51.412;5.540;2022-07-09T10:52:57;18.48;;;13.20;;
24261;SDS011;12385;51.412;5.540;2022-07-09T10:55:25;17.08;;;11.50;;
24261;SDS011;12385;51.412;5.540;2022-07-09T10:57:52;15.82;;;11.07;;
24261;SDS011;12385;51.412;5.540;2022-07-09T11:00:23;13.70;;;9.07;;
24261;SDS011;12385;51.412;5.540;2022-07-09T11:02:57;14.00;;;8.60;;
24261;SDS011;12385;51.412;5.540;2022-07-09T11:05:23;13.35;;;7.60;;
24261;SDS011;12385;51.412;5.540;2022-07-09T11:08:05;14.05;;;7.40;;
24261;SDS011;12385;51.412;5.540;2022-07-09T11:10:35;10.25;;;6.97;;
24261;SDS011;12385;51.412;5.540;2022-07-09T11:13:02;9.00;;;5.80;;
24261;SDS011;12385;51.412;5.540;2022-07-09T11:15:31;8.87;;;5.73;;
24261;SDS011;12385;51.412;5.540;2022-07-09T11:20:28;9.40;;;5.20;;
24261;SDS011;12385;51.412;5.540;2022-07-09T11:22:54;7.95;;;4.85;;
24261;SDS011;12385;51.412;5.540;2022-07-09T11:25:26;8.10;;;4.55;;
24261;SDS011;12385;51.412;5.540;2022-07-09T11:27:53;6.47;;;3.50;;
24261;SDS011;12385;51.412;5.540;2022-07-09T11:30:20;6.95;;;3.85;;
24261;SDS011;12385;51.412;5.540;2022-07-09T11:32:46;8.38;;;3.75;;
24261;SDS011;12385;51.412;5.540;2022-07-09T11:35:12;6.15;;;2.80;;
24261;SDS011;12385;51.412;5.540;2022-07-09T11:37:49;5.47;;;2.50;;
24261;SDS011;12385;51.412;5.540;2022-07-09T11:40:18;5.43;;;2.28;;
24261;SDS011;12385;51.412;5.540;2022-07-09T11:45:10;5.10;;;2.70;;
24261;SDS011;12385;51.412;5.540;2022-07-09T11:47:37;6.07;;;2.05;;
24261;SDS011;12385;51.412;5.540;2022-07-09T11:52:33;6.68;;;2.03;;
24261;SDS011;12385;51.412;5.540;2022-07-09T11:54:59;4.93;;;1.60;;
24261;SDS011;12385;51.412;5.540;2022-07-09T11:57:27;2.88;;;1.40;;
24261;SDS011;12385;51.412;5.540;2022-07-09T11:59:54;3.90;;;1.50;;
24261;SDS011;12385;51.412;5.540;2022-07-09T12:02:28;3.03;;;1.60;;
24261;SDS011;12385;51.412;5.540;2022-07-09T12:04:56;4.13;;;1.50;;
24261;SDS011;12385;51.412;5.540;2022-07-09T12:07:22;1.20;;;1.00;;
24261;SDS011;12385;51.412;5.540;2022-07-09T12:10:03;2.13;;;1.00;;
24261;SDS011;12385;51.412;5.540;2022-07-09T12:12:32;3.20;;;1.17;;
24261;SDS011;12385;51.412;5.540;2022-07-09T12:14:59;4.63;;;1.05;;
24261;SDS011;12385;51.412;5.540;2022-07-09T12:17:29;5.85;;;1.00;;
24261;SDS011;12385;51.412;5.540;2022-07-09T12:19:57;1.70;;;0.70;;
24261;SDS011;12385;51.412;5.540;2022-07-09T12:22:23;2.63;;;1.00;;
24261;SDS011;12385;51.412;5.540;2022-07-09T12:24:50;3.72;;;0.98;;
24261;SDS011;12385;51.412;5.540;2022-07-09T12:27:18;2.13;;;1.00;;
24261;SDS011;12385;51.412;5.540;2022-07-09T12:29:45;4.07;;;0.98;;
24261;SDS011;12385;51.412;5.540;2022-07-09T12:32:11;2.05;;;0.80;;
24261;SDS011;12385;51.412;5.540;2022-07-09T12:34:37;3.47;;;1.00;;
24261;SDS011;12385;51.412;5.540;2022-07-09T12:37:04;2.00;;;0.95;;
24261;SDS011;12385;51.412;5.540;2022-07-09T12:39:30;3.13;;;0.80;;
24261;SDS011;12385;51.412;5.540;2022-07-09T12:41:58;3.75;;;0.80;;
24261;SDS011;12385;51.412;5.540;2022-07-09T12:44:24;2.25;;;0.80;;
24261;SDS011;12385;51.412;5.540;2022-07-09T12:46:53;3.00;;;0.80;;
24261;SDS011;12385;51.412;5.540;2022-07-09T12:49:20;3.47;;;0.88;;
24261;SDS011;12385;51.412;5.540;2022-07-09T12:51:45;3.53;;;0.90;;
24261;SDS011;12385;51.412;5.540;2022-07-09T12:54:11;2.60;;;0.77;;
24261;SDS011;12385;51.412;5.540;2022-07-09T12:56:37;3.72;;;0.68;;
24261;SDS011;12385;51.412;5.540;2022-07-09T12:59:02;3.42;;;0.70;;
24261;SDS011;12385;51.412;5.540;2022-07-09T13:01:28;1.25;;;0.70;;
24261;SDS011;12385;51.412;5.540;2022-07-09T13:03:54;4.30;;;0.70;;
24261;SDS011;12385;51.412;5.540;2022-07-09T13:06:20;1.75;;;0.60;;
24261;SDS011;12385;51.412;5.540;2022-07-09T13:08:59;3.75;;;0.63;;
24261;SDS011;12385;51.412;5.540;2022-07-09T13:11:26;3.22;;;0.70;;
24261;SDS011;12385;51.412;5.540;2022-07-09T13:13:53;1.58;;;0.70;;
24261;SDS011;12385;51.412;5.540;2022-07-09T13:16:19;3.55;;;0.60;;
24261;SDS011;12385;51.412;5.540;2022-07-09T13:18:44;2.72;;;0.85;;
24261;SDS011;12385;51.412;5.540;2022-07-09T13:21:10;3.55;;;0.80;;
24261;SDS011;12385;51.412;5.540;2022-07-09T13:23:35;2.00;;;0.63;;
24261;SDS011;12385;51.412;5.540;2022-07-09T13:26:01;0.98;;;0.45;;
24261;SDS011;12385;51.412;5.540;2022-07-09T13:28:27;1.63;;;0.55;;
24261;SDS011;12385;51.412;5.540;2022-07-09T13:30:53;1.80;;;0.70;;
24261;SDS011;12385;51.412;5.540;2022-07-09T13:33:20;1.20;;;0.50;;
24261;SDS011;12385;51.412;5.540;2022-07-09T13:35:46;3.70;;;0.90;;
24261;SDS011;12385;51.412;5.540;2022-07-09T13:38:11;3.72;;;0.70;;
24261;SDS011;12385;51.412;5.540;2022-07-09T13:40:38;1.48;;;0.68;;
24261;SDS011;12385;51.412;5.540;2022-07-09T13:43:03;1.08;;;0.60;;
24261;SDS011;12385;51.412;5.540;2022-07-09T13:45:29;2.70;;;0.50;;
24261;SDS011;12385;51.412;5.540;2022-07-09T13:47:55;4.45;;;0.50;;
24261;SDS011;12385;51.412;5.540;2022-07-09T13:50:20;2.88;;;0.70;;
24261;SDS011;12385;51.412;5.540;2022-07-09T13:52:49;4.68;;;0.70;;
24261;SDS011;12385;51.412;5.540;2022-07-09T13:55:17;2.20;;;0.45;;
24261;SDS011;12385;51.412;5.540;2022-07-09T13:57:43;2.90;;;0.50;;
24261;SDS011;12385;51.412;5.540;2022-07-09T14:00:09;3.47;;;0.52;;
24261;SDS011;12385;51.412;5.540;2022-07-09T14:02:35;1.60;;;0.40;;
24261;SDS011;12385;51.412;5.540;2022-07-09T14:05:03;4.13;;;0.57;;
24261;SDS011;12385;51.412;5.540;2022-07-09T14:07:30;1.73;;;0.43;;
24261;SDS011;12385;51.412;5.540;2022-07-09T14:09:57;3.80;;;0.60;;
24261;SDS011;12385;51.412;5.540;2022-07-09T14:12:23;3.53;;;0.52;;
24261;SDS011;12385;51.412;5.540;2022-07-09T14:14:51;2.03;;;0.57;;
24261;SDS011;12385;51.412;5.540;2022-07-09T14:17:19;3.77;;;0.70;;
24261;SDS011;12385;51.412;5.540;2022-07-09T14:19:45;2.55;;;0.65;;
24261;SDS011;12385;51.412;5.540;2022-07-09T14:22:10;2.58;;;0.80;;
24261;SDS011;12385;51.412;5.540;2022-07-09T14:24:36;3.67;;;0.70;;
24261;SDS011;12385;51.412;5.540;2022-07-09T14:27:04;3.95;;;0.50;;
24261;SDS011;12385;51.412;5.540;2022-07-09T14:29:29;1.98;;;0.50;;
24261;SDS011;12385;51.412;5.540;2022-07-09T14:31:55;5.50;;;0.70;;
24261;SDS011;12385;51.412;5.540;2022-07-09T14:34:21;2.90;;;0.60;;
24261;SDS011;12385;51.412;5.540;2022-07-09T14:36:48;2.17;;;0.60;;
24261;SDS011;12385;51.412;5.540;2022-07-09T14:39:15;3.10;;;0.63;;
24261;SDS011;12385;51.412;5.540;2022-07-09T14:41:40;3.75;;;0.70;;
24261;SDS011;12385;51.412;5.540;2022-07-09T14:44:06;4.93;;;0.60;;
24261;SDS011;12385;51.412;5.540;2022-07-09T14:46:32;3.63;;;0.77;;
24261;SDS011;12385;51.412;5.540;2022-07-09T14:48:57;2.72;;;0.70;;
24261;SDS011;12385;51.412;5.540;2022-07-09T14:51:23;3.00;;;0.80;;